»·PEaware :: AAY783 KJAC-KSLC

AAY783 :: KJAC-KSLC

FLIGHT INFORMATION

Flight Status: Arrived
Operator:
Allegiant Air
More flights by this operator :: More flights under this callsign
Pilot: Anonymous 17611 (17611)
Aircraft: AIRBUS A320
(A320)
More flights by this aircraft type
Origin: KJAC Jackson Hole
United States
Destination: KSLC Salt Lake City Intl
United States
More flights between these airports :: More routes between these airports
Route: GEYSR5 NALSI JAC NORDK5
File this flight plan on PilotEdge
Remarks:
Altitude:
(Current/Filed)
26,000ft
Speed:
(Current/Filed)
452kts
Departed: 12-May-18 08:27 AM
Arrived: 12-May-18 09:11 AM
Distance/Time
Traveled:
178nm/0:44
Distance/Time
To Go:
Arrived

Flight Plot

Page will automatically refresh every two minutes.

Flight plan parsing failed; only flown route is shown


Map Options




Map Legend


Flown Route
Filed Route
Departure Airport
Arrival Airport
Navaid (VOR, NDB)
Fix

Horizontal Profiles

Position Reports

Time Latitude Longitude Heading Altitude Ground
Speed
12-May-18 07:46 43.601484 -110.738017 110 6424ft 0kts
12-May-18 07:47 43.601484 -110.738017 110 6424ft 0kts
12-May-18 07:48 43.601484 -110.738017 110 6424ft 0kts
12-May-18 07:49 43.601484 -110.738017 110 6424ft 0kts
12-May-18 07:50 43.601484 -110.738017 110 6424ft 0kts
12-May-18 07:51 43.601484 -110.738017 110 6424ft 0kts
12-May-18 07:52 43.601484 -110.738017 110 6424ft 0kts
12-May-18 07:53 43.601484 -110.738017 110 6424ft 0kts
12-May-18 07:54 43.601484 -110.738017 110 6424ft 0kts
12-May-18 07:55 43.601484 -110.738017 110 6424ft 0kts
12-May-18 07:56 43.601484 -110.738017 110 6424ft 0kts
12-May-18 07:57 43.601484 -110.738017 110 6424ft 0kts
12-May-18 07:58 43.601484 -110.738017 110 6424ft 0kts
12-May-18 07:59 43.601484 -110.738017 110 6424ft 0kts
12-May-18 08:00 43.601484 -110.738017 110 6424ft 0kts
12-May-18 08:01 43.601484 -110.738017 110 6424ft 0kts
12-May-18 08:02 43.601484 -110.738017 110 6424ft 0kts
12-May-18 08:03 43.601484 -110.738017 110 6424ft 0kts
12-May-18 08:04 43.601484 -110.738017 110 6424ft 0kts
12-May-18 08:05 43.601484 -110.738017 110 6424ft 0kts
12-May-18 08:06 43.601484 -110.738017 110 6424ft 0kts
12-May-18 08:07 43.601484 -110.738017 110 6424ft 0kts
12-May-18 08:08 43.601484 -110.738017 110 6424ft 0kts
12-May-18 08:09 43.601484 -110.738017 110 6424ft 0kts
12-May-18 08:10 43.601484 -110.738017 110 6424ft 0kts
12-May-18 08:11 43.601484 -110.738017 110 6424ft 0kts
12-May-18 08:12 43.601484 -110.738017 110 6424ft 0kts
12-May-18 08:13 43.601484 -110.738017 110 6424ft 0kts
12-May-18 08:14 43.601484 -110.738017 110 6424ft 0kts
12-May-18 08:15 43.601484 -110.738017 110 6424ft 0kts
12-May-18 08:16 43.601484 -110.738017 110 6424ft 0kts
12-May-18 08:17 43.601484 -110.738017 110 6424ft 0kts
12-May-18 08:18 43.601484 -110.738017 110 6424ft 0kts
12-May-18 08:19 43.601484 -110.738017 110 6424ft 0kts
12-May-18 08:20 43.601484 -110.738017 110 6424ft 0kts
12-May-18 08:21 43.601587 -110.738402 110 6423ft 2kts
12-May-18 08:22 43.601980 -110.738787 195 6424ft 0kts
12-May-18 08:23 43.602046 -110.738752 199 6424ft 0kts
12-May-18 08:24 43.602031 -110.738760 199 6424ft 1kts
12-May-18 08:25 43.600554 -110.739461 199 6421ft 9kts
12-May-18 08:26 43.599535 -110.740157 233 6419ft 2kts
12-May-18 08:27 43.601506 -110.740598 20 6422ft 58kts
12-May-18 08:28 43.637896 -110.722992 22 8446ft 166kts
12-May-18 08:29 43.684989 -110.684191 46 10775ft 245kts
12-May-18 08:30 43.752214 -110.627350 32 12689ft 334kts
12-May-18 08:31 43.828433 -110.566640 32 14521ft 376kts
12-May-18 08:32 43.881482 -110.468410 89 16836ft 373kts
12-May-18 08:33 43.825743 -110.361821 159 19272ft 383kts
12-May-18 08:34 43.730383 -110.393005 216 21436ft 414kts
12-May-18 08:35 43.684430 -110.536549 243 23382ft 438kts
12-May-18 08:36 43.636755 -110.684921 238 25230ft 438kts
12-May-18 08:37 43.562632 -110.804468 216 26001ft 430kts
12-May-18 08:38 43.474624 -110.913354 216 26007ft 441kts
12-May-18 08:39 43.400924 -111.004298 217 26003ft 448kts
12-May-18 08:40 43.312497 -111.113032 217 25984ft 456kts
12-May-18 08:41 43.220261 -111.225979 217 26006ft 460kts
12-May-18 08:42 43.126624 -111.340143 217 26016ft 460kts
12-May-18 08:43 43.029363 -111.444361 199 25973ft 451kts
12-May-18 08:44 42.916509 -111.497663 196 26009ft 433kts
12-May-18 08:45 42.810601 -111.546691 196 25977ft 412kts
12-May-18 08:46 42.704513 -111.595750 196 25973ft 414kts
12-May-18 08:47 42.598123 -111.644751 196 25960ft 414kts
12-May-18 08:48 42.495210 -111.691974 196 25921ft 413kts
12-May-18 08:49 42.390413 -111.739903 195 25565ft 388kts
12-May-18 08:50 42.309498 -111.776734 195 24833ft 374kts
12-May-18 08:51 42.223346 -111.815927 195 23955ft 372kts
12-May-18 08:52 42.159415 -111.844924 195 23303ft 370kts
12-May-18 08:53 42.088153 -111.877170 194 22564ft 367kts
12-May-18 08:54 42.007478 -111.913577 194 21728ft 365kts
12-May-18 08:55 41.916939 -111.954314 194 20782ft 362kts
12-May-18 08:56 41.828362 -111.994058 194 19867ft 359kts
12-May-18 08:57 41.735899 -112.018720 183 18385ft 350kts
12-May-18 08:58 41.644613 -112.032994 183 16200ft 345kts
12-May-18 08:59 41.557736 -112.046556 183 14122ft 339kts
12-May-18 09:00 41.467593 -112.054812 171 12561ft 331kts
12-May-18 09:01 41.378737 -112.044052 172 11990ft 330kts
12-May-18 09:02 41.291151 -112.033615 172 12010ft 330kts
12-May-18 09:03 41.206546 -112.023590 171 11281ft 297kts
12-May-18 09:04 41.134253 -112.015201 172 10677ft 263kts
12-May-18 09:05 41.063282 -112.006478 174 9141ft 256kts
12-May-18 09:06 40.995637 -111.998776 174 7909ft 237kts
12-May-18 09:07 40.931659 -111.991345 175 6669ft 228kts
12-May-18 09:08 40.871463 -111.984348 175 5498ft 210kts
12-May-18 09:09 40.827033 -111.979153 176 4632ft 141kts
12-May-18 09:10 40.794568 -111.975475 173 4225ft 66kts
12-May-18 09:11 40.784727 -111.975753 218 4227ft 12kts

Navigation Log

Ident Type
Flight plan parsing failed, navigation log unavailable